createdAt,value
2017-06-05T00:00:47.730Z,42.20
2017-06-05T00:03:15.217Z,42.20
2017-06-05T00:05:42.715Z,44.10
2017-06-05T00:08:10.463Z,45.50
2017-06-05T00:10:37.959Z,45.00
2017-06-05T00:13:05.498Z,44.70
2017-06-05T00:15:32.991Z,42.70
2017-06-05T00:18:00.485Z,46.10
2017-06-05T00:20:28.037Z,43.60
2017-06-05T00:22:55.592Z,44.90
2017-06-05T00:25:23.193Z,46.50
2017-06-05T00:27:50.716Z,47.10
2017-06-05T00:30:18.202Z,45.30
2017-06-05T00:32:45.688Z,42.80
2017-06-05T00:35:13.207Z,44.30
2017-06-05T00:37:40.696Z,45.50
2017-06-05T00:40:08.180Z,49.50
2017-06-05T00:42:36.117Z,50.50
2017-06-05T00:45:03.602Z,50.50
2017-06-05T00:47:31.344Z,51.50
2017-06-05T00:49:58.856Z,53.00
2017-06-05T00:52:26.345Z,53.90
2017-06-05T00:54:53.854Z,54.60
2017-06-05T00:57:21.750Z,54.80
2017-06-05T00:59:49.244Z,54.80
2017-06-05T01:02:17.224Z,54.80
2017-06-05T01:04:44.709Z,54.90
2017-06-05T01:07:12.225Z,55.10
2017-06-05T01:09:39.760Z,55.80
2017-06-05T01:12:07.621Z,56.60
2017-06-05T01:14:35.133Z,54.80
2017-06-05T01:17:03.069Z,51.80
2017-06-05T01:19:30.553Z,51.80
2017-06-05T01:21:58.450Z,50.40
2017-06-05T01:24:26.001Z,50.40
2017-06-05T01:26:53.560Z,49.50
2017-06-05T01:29:21.066Z,48.40
2017-06-05T01:31:48.600Z,47.10
2017-06-05T01:34:16.088Z,45.60
2017-06-05T01:36:43.597Z,47.40
2017-06-05T01:39:11.166Z,46.80
2017-06-05T01:41:38.645Z,47.00
2017-06-05T01:44:06.143Z,47.00
2017-06-05T01:46:33.729Z,45.90
2017-06-05T01:49:01.220Z,46.70
2017-06-05T01:51:28.748Z,46.20
2017-06-05T01:53:56.415Z,45.90
2017-06-05T01:56:23.980Z,46.70
2017-06-05T01:58:51.535Z,45.60
2017-06-05T02:01:19.055Z,45.30
2017-06-05T02:03:46.549Z,45.00
2017-06-05T02:06:14.201Z,44.40
2017-06-05T02:08:41.766Z,44.10
2017-06-05T02:11:09.454Z,44.90
2017-06-05T02:13:36.988Z,44.70
2017-06-05T02:16:04.479Z,45.00
2017-06-05T02:18:32.096Z,44.60
2017-06-05T02:20:59.637Z,45.00
2017-06-05T02:23:27.229Z,45.30
2017-06-05T02:25:54.728Z,44.70
2017-06-05T02:28:22.252Z,45.30
2017-06-05T02:30:49.747Z,45.30
2017-06-05T02:33:17.237Z,44.40
2017-06-05T02:35:45.192Z,45.80
2017-06-05T02:38:12.678Z,45.80
2017-06-05T02:40:40.483Z,45.60
2017-06-05T02:43:08.047Z,45.00
2017-06-05T02:45:35.540Z,44.70
2017-06-05T02:48:03.157Z,44.40
2017-06-05T02:50:30.782Z,44.90
2017-06-05T02:52:58.272Z,44.90
2017-06-05T02:55:25.796Z,44.10
2017-06-05T02:57:53.365Z,45.20
2017-06-05T03:00:20.845Z,46.10
2017-06-05T03:02:48.327Z,45.30
2017-06-05T03:05:15.851Z,45.80
2017-06-05T03:07:45.240Z,45.60
2017-06-05T03:10:12.747Z,46.50
2017-06-05T03:12:40.283Z,45.30
2017-06-05T03:15:07.781Z,46.20
2017-06-05T03:17:35.264Z,45.60
2017-06-05T03:20:02.814Z,45.00
2017-06-05T03:22:30.700Z,46.10
2017-06-05T03:24:58.205Z,46.10
2017-06-05T03:27:25.703Z,45.00
2017-06-05T03:29:53.196Z,46.10
2017-06-05T03:32:20.725Z,46.40
2017-06-05T03:34:48.212Z,48.10
2017-06-05T03:37:15.707Z,49.00
2017-06-05T03:39:43.354Z,50.70
2017-06-05T03:42:10.836Z,52.00
2017-06-05T03:44:38.728Z,50.80
2017-06-05T03:47:06.237Z,50.80
2017-06-05T03:49:33.723Z,50.70
2017-06-05T03:52:01.234Z,48.40
2017-06-05T03:54:29.495Z,48.30
2017-06-05T03:56:57.041Z,50.40
2017-06-05T03:59:25.345Z,47.30
2017-06-05T04:01:55.688Z,50.10
2017-06-05T04:04:23.196Z,48.30
2017-06-05T04:06:50.687Z,47.80
2017-06-05T04:09:18.219Z,49.30
2017-06-05T04:11:46.035Z,51.20
2017-06-05T04:14:14.188Z,50.80
2017-06-05T04:16:41.719Z,50.80
2017-06-05T04:19:09.507Z,51.40
2017-06-05T04:21:37.028Z,51.20
2017-06-05T04:24:04.573Z,50.80
2017-06-05T04:26:32.901Z,50.80
2017-06-05T04:29:00.445Z,50.80
2017-06-05T04:31:27.943Z,51.70
2017-06-05T04:33:55.598Z,51.50
2017-06-05T04:36:23.131Z,51.80
2017-06-05T04:38:50.624Z,51.10
2017-06-05T04:41:18.212Z,50.90
2017-06-05T04:43:46.148Z,50.70
2017-06-05T04:46:13.648Z,50.80
2017-06-05T04:48:41.153Z,50.70
2017-06-05T04:51:08.755Z,51.20
2017-06-05T04:53:36.728Z,50.90
2017-06-05T04:56:04.610Z,50.70
2017-06-05T04:58:32.397Z,50.70
2017-06-05T05:00:59.938Z,49.50
2017-06-05T05:03:27.721Z,50.10
2017-06-05T05:05:55.282Z,50.90
2017-06-05T05:08:22.812Z,50.70
2017-06-05T05:10:50.296Z,50.20
2017-06-05T05:13:17.841Z,48.90
2017-06-05T05:15:45.355Z,48.90
2017-06-05T05:18:12.849Z,48.30
2017-06-05T05:20:40.383Z,48.70
2017-06-05T05:23:08.329Z,46.80
2017-06-05T05:25:35.824Z,46.80
2017-06-05T05:28:03.621Z,47.70
2017-06-05T05:30:31.117Z,46.80
2017-06-05T05:32:59.021Z,44.00
2017-06-05T05:35:26.606Z,44.00
2017-06-05T05:37:54.162Z,45.00
2017-06-05T05:40:21.683Z,43.30
2017-06-05T05:42:49.941Z,45.00
2017-06-05T05:45:17.448Z,45.00
2017-06-05T05:47:44.944Z,44.10
2017-06-05T05:50:12.527Z,45.00
2017-06-05T05:52:40.023Z,43.60
2017-06-05T05:55:07.521Z,43.00
2017-06-05T05:57:35.058Z,43.00
2017-06-05T06:00:02.573Z,42.70
2017-06-05T06:02:30.069Z,42.70
2017-06-05T06:04:57.615Z,43.90
2017-06-05T06:07:25.342Z,41.60
2017-06-05T06:09:53.227Z,40.90
2017-06-05T06:12:20.769Z,40.90
2017-06-05T06:14:48.689Z,39.90
2017-06-05T06:17:16.182Z,39.90
2017-06-05T06:19:44.083Z,40.70
2017-06-05T06:22:11.595Z,40.60
2017-06-05T06:24:39.139Z,40.50
2017-06-05T06:27:06.631Z,36.90
2017-06-05T06:29:34.521Z,37.40
2017-06-05T06:32:02.110Z,37.40
2017-06-05T06:34:29.608Z,40.30
2017-06-05T06:36:57.126Z,36.60
2017-06-05T06:39:24.677Z,35.70
2017-06-05T06:41:52.168Z,37.10
2017-06-05T06:44:19.653Z,35.60
2017-06-05T06:46:47.545Z,41.00
2017-06-05T06:49:15.325Z,41.00
2017-06-05T06:51:42.854Z,41.60
2017-06-05T06:54:10.687Z,37.10
2017-06-05T06:56:38.177Z,38.40
2017-06-05T06:59:05.731Z,39.70
2017-06-05T07:01:33.632Z,32.00
2017-06-05T07:04:01.121Z,32.00
2017-06-05T07:06:28.767Z,32.00
2017-06-05T07:08:56.276Z,31.10
2017-06-05T07:11:23.786Z,31.70
2017-06-05T07:13:51.365Z,31.10
2017-06-05T07:16:18.855Z,30.60
2017-06-05T07:18:46.351Z,31.40
2017-06-05T07:21:13.878Z,31.40
2017-06-05T07:23:41.373Z,31.40
2017-06-05T07:26:08.935Z,29.60
2017-06-05T07:28:36.453Z,29.30
2017-06-05T07:31:03.953Z,31.10
2017-06-05T07:33:31.455Z,29.60
2017-06-05T07:35:59.709Z,28.90
2017-06-05T07:38:27.440Z,28.90
2017-06-05T07:40:54.936Z,27.20
2017-06-05T07:43:22.516Z,26.00
2017-06-05T07:45:50.015Z,26.20
2017-06-05T07:48:17.517Z,27.40
2017-06-05T07:50:45.469Z,27.60
2017-06-05T07:53:12.970Z,27.60
2017-06-05T07:55:40.488Z,26.70
2017-06-05T07:58:08.001Z,27.60
2017-06-05T08:00:35.711Z,28.80
2017-06-05T08:03:03.217Z,28.10
2017-06-05T08:05:30.753Z,28.80
2017-06-05T08:07:58.965Z,27.60
2017-06-05T08:10:26.464Z,27.60
2017-06-05T08:12:54.369Z,28.30
2017-06-05T08:15:21.869Z,28.30
2017-06-05T08:17:49.404Z,27.40
2017-06-05T08:20:16.896Z,25.00
2017-06-05T08:22:44.412Z,26.20
2017-06-05T08:25:11.940Z,27.90
2017-06-05T08:27:39.444Z,28.30
2017-06-05T08:30:06.938Z,28.40
2017-06-05T08:32:34.581Z,28.00
2017-06-05T08:35:02.115Z,27.50
2017-06-05T08:37:29.667Z,28.70
2017-06-05T08:39:57.306Z,29.10
2017-06-05T08:42:24.802Z,29.40
2017-06-05T08:44:52.298Z,29.30
2017-06-05T08:47:19.831Z,29.40
2017-06-05T08:49:47.325Z,28.60
2017-06-05T08:52:15.331Z,27.20
2017-06-05T08:54:42.876Z,27.20
2017-06-05T08:57:10.371Z,27.30
2017-06-05T08:59:38.091Z,28.40
2017-06-05T09:02:05.626Z,29.60
2017-06-05T09:04:33.645Z,26.90
2017-06-05T09:07:01.426Z,26.90
2017-06-05T09:09:29.096Z,25.40
2017-06-05T09:11:56.624Z,22.10
2017-06-05T09:14:24.209Z,22.90
2017-06-05T09:16:51.706Z,23.90
2017-06-05T09:19:19.589Z,25.10
2017-06-05T09:21:47.797Z,25.10
2017-06-05T09:24:15.339Z,24.50
2017-06-05T09:26:42.992Z,22.00
2017-06-05T09:29:10.809Z,22.80
2017-06-05T09:31:38.530Z,24.30
2017-06-05T09:34:06.069Z,23.80
2017-06-05T09:36:33.620Z,23.30
2017-06-05T09:39:01.143Z,22.80
2017-06-05T09:41:28.648Z,21.30
2017-06-05T09:43:56.184Z,22.40
2017-06-05T09:46:24.082Z,23.40
2017-06-05T09:48:51.592Z,23.40
2017-06-05T09:51:19.088Z,23.30
2017-06-05T09:53:46.574Z,23.40
2017-06-05T09:56:14.202Z,24.80
2017-06-05T09:58:41.723Z,24.60
2017-06-05T10:01:09.457Z,22.00
2017-06-05T10:03:37.038Z,23.90
2017-06-05T10:06:04.579Z,24.50
2017-06-05T10:08:32.121Z,22.90
2017-06-05T10:10:59.662Z,23.50
2017-06-05T10:13:27.150Z,24.40
2017-06-05T10:15:54.645Z,24.70
2017-06-05T10:18:22.147Z,24.50
2017-06-05T10:20:49.648Z,23.70
2017-06-05T10:23:17.161Z,22.60
2017-06-05T10:25:45.841Z,25.80
2017-06-05T10:28:13.332Z,25.70
2017-06-05T10:30:41.154Z,22.60
2017-06-05T10:33:08.957Z,23.20
2017-06-05T10:35:36.483Z,23.30
2017-06-05T10:38:04.033Z,22.90
2017-06-05T10:40:31.729Z,23.40
2017-06-05T10:42:59.257Z,22.50
2017-06-05T10:45:26.744Z,23.10
2017-06-05T10:47:54.245Z,23.60
2017-06-05T10:50:22.199Z,23.50
2017-06-05T10:52:49.687Z,23.50
2017-06-05T10:55:17.572Z,24.70
2017-06-05T10:57:45.138Z,24.70
2017-06-05T11:00:12.631Z,23.90
2017-06-05T11:02:40.129Z,26.20
2017-06-05T11:05:08.068Z,23.70
2017-06-05T11:07:35.803Z,23.70
2017-06-05T11:10:03.329Z,23.80
2017-06-05T11:12:30.878Z,24.10
2017-06-05T11:14:58.785Z,24.20
2017-06-05T11:17:26.299Z,24.20
2017-06-05T11:19:54.236Z,24.60
2017-06-05T11:22:21.869Z,24.60
2017-06-05T11:24:49.381Z,26.20
2017-06-05T11:27:17.272Z,24.90
2017-06-05T11:29:44.762Z,24.90
2017-06-05T11:32:12.284Z,25.30
2017-06-05T11:34:39.783Z,26.80
2017-06-05T11:37:07.272Z,25.60
2017-06-05T11:39:34.792Z,25.60
2017-06-05T11:42:02.282Z,25.80
2017-06-05T11:44:29.763Z,26.80
2017-06-05T11:46:57.360Z,27.00
2017-06-05T11:49:24.868Z,27.90
2017-06-05T11:51:52.702Z,28.30
2017-06-05T11:54:20.216Z,28.10
2017-06-05T11:56:47.720Z,28.90
2017-06-05T11:59:15.235Z,28.10
2017-06-05T12:01:42.750Z,28.10
2017-06-05T12:04:11.199Z,29.10
2017-06-05T12:06:39.633Z,25.40
2017-06-05T12:09:08.160Z,25.90
2017-06-05T12:11:36.341Z,27.40
2017-06-05T12:14:05.245Z,27.70
2017-06-05T12:16:33.840Z,27.80
2017-06-05T12:19:02.317Z,27.80
2017-06-05T12:21:30.795Z,28.20
2017-06-05T12:23:59.085Z,28.90
2017-06-05T12:26:27.786Z,27.90
2017-06-05T12:28:57.028Z,27.40
2017-06-05T12:31:24.790Z,27.40
2017-06-05T12:33:52.783Z,27.80
2017-06-05T12:36:22.285Z,28.80
2017-06-05T12:38:50.114Z,28.40
2017-06-05T12:41:18.480Z,29.80
2017-06-05T12:43:46.719Z,29.20
2017-06-05T12:46:16.057Z,28.70
2017-06-05T12:48:44.258Z,28.90
2017-06-05T12:51:13.102Z,27.20
2017-06-05T12:53:42.585Z,27.00
2017-06-05T12:56:11.079Z,27.00
2017-06-05T12:58:38.898Z,27.60
2017-06-05T13:01:07.039Z,28.40
2017-06-05T13:03:35.838Z,27.50
2017-06-05T13:06:05.008Z,28.20
2017-06-05T13:08:33.266Z,28.20
2017-06-05T13:11:01.554Z,28.40
2017-06-05T13:13:30.106Z,28.10
2017-06-05T13:15:58.390Z,28.20
2017-06-05T13:18:27.103Z,28.40
2017-06-05T13:20:55.350Z,27.90
2017-06-05T13:23:23.880Z,28.30
2017-06-05T13:25:53.163Z,29.20
2017-06-05T13:28:21.594Z,29.10
2017-06-05T13:30:49.507Z,29.10
2017-06-05T13:33:17.376Z,27.70
2017-06-05T13:35:45.849Z,28.30
2017-06-05T13:38:13.697Z,29.10
2017-06-05T13:40:41.238Z,28.10
2017-06-05T13:43:09.028Z,27.30
2017-06-05T13:45:37.170Z,28.10
2017-06-05T13:48:05.361Z,29.10
2017-06-05T13:50:32.915Z,29.70
2017-06-05T13:53:00.675Z,30.70
2017-06-05T13:55:28.184Z,31.00
2017-06-05T13:57:56.244Z,30.10
2017-06-05T14:00:23.776Z,30.10
2017-06-05T14:02:52.297Z,30.10
2017-06-05T14:05:20.502Z,30.10
2017-06-05T14:07:48.021Z,30.10
2017-06-05T14:10:15.568Z,31.30
2017-06-05T14:12:43.206Z,32.00
2017-06-05T14:15:10.735Z,32.00
2017-06-05T14:17:38.250Z,32.30
2017-06-05T14:20:06.005Z,32.30
2017-06-05T14:22:33.617Z,33.10
2017-06-05T14:25:01.129Z,33.10
2017-06-05T14:27:28.665Z,33.40
2017-06-05T14:29:56.184Z,33.80
2017-06-05T14:32:23.725Z,33.40
2017-06-05T14:34:51.642Z,32.80
2017-06-05T14:37:19.127Z,32.80
2017-06-05T14:39:46.750Z,33.10
2017-06-05T14:42:14.227Z,33.70
2017-06-05T14:44:41.753Z,32.80
2017-06-05T14:47:09.288Z,31.60
2017-06-05T14:49:37.184Z,31.60
2017-06-05T14:52:04.716Z,31.60
2017-06-05T14:54:32.263Z,32.30
2017-06-05T14:56:59.782Z,32.00
2017-06-05T14:59:27.280Z,30.30
2017-06-05T15:01:55.368Z,30.30
2017-06-05T15:04:23.100Z,30.30
2017-06-05T15:09:50.038Z,33.20
2017-06-05T15:12:17.653Z,32.80
2017-06-05T15:14:45.151Z,31.10
2017-06-05T15:17:12.644Z,29.50
2017-06-05T15:19:40.178Z,29.60
2017-06-05T15:22:07.668Z,30.40
2017-06-05T15:24:35.157Z,31.30
2017-06-05T15:27:02.734Z,29.80
2017-06-05T15:29:30.222Z,31.60
2017-06-05T15:31:57.765Z,31.00
2017-06-05T15:34:25.304Z,31.30
2017-06-05T15:36:52.802Z,34.00
2017-06-05T15:39:20.449Z,31.70
2017-06-05T15:41:47.956Z,32.60
2017-06-05T15:44:15.842Z,34.80
2017-06-05T15:46:43.381Z,34.80
2017-06-05T15:49:10.887Z,35.40
2017-06-05T15:51:38.376Z,35.60
2017-06-05T15:54:05.951Z,37.80
2017-06-05T15:56:33.836Z,37.40
2017-06-05T15:59:01.627Z,37.40
2017-06-05T16:01:29.148Z,37.90
2017-06-05T16:03:56.952Z,38.10
2017-06-05T16:06:24.490Z,40.00
2017-06-05T16:08:52.000Z,39.30
2017-06-05T16:11:19.491Z,39.60
2017-06-05T16:13:47.009Z,37.80
2017-06-05T16:16:14.504Z,38.40
2017-06-05T16:18:42.988Z,38.70
2017-06-05T16:21:10.538Z,38.80
2017-06-05T16:23:38.423Z,37.90
2017-06-05T16:26:05.920Z,37.90
2017-06-05T16:28:33.420Z,37.60
2017-06-05T16:31:00.907Z,39.60
2017-06-05T16:33:28.431Z,41.60
2017-06-05T16:35:56.325Z,54.20
2017-06-05T16:38:23.817Z,54.20
2017-06-05T16:40:52.051Z,53.30
2017-06-05T16:43:19.557Z,52.00
2017-06-05T16:45:47.048Z,53.90
2017-06-05T16:48:15.372Z,52.40
2017-06-05T16:50:42.864Z,52.30
2017-06-05T16:53:10.587Z,54.60
2017-06-05T16:55:38.152Z,54.20
2017-06-05T16:58:05.995Z,52.00
2017-06-05T17:00:34.173Z,49.90
2017-06-05T17:03:01.724Z,48.60
2017-06-05T17:05:29.216Z,48.10
2017-06-05T17:07:56.888Z,48.00
2017-06-05T17:10:24.438Z,47.70
2017-06-05T17:12:51.927Z,49.80
2017-06-05T17:15:19.424Z,49.80
2017-06-05T17:17:47.215Z,50.10
2017-06-05T17:20:14.735Z,52.40
2017-06-05T17:22:42.319Z,55.50
2017-06-05T17:25:09.878Z,56.10
2017-06-05T17:27:37.382Z,58.30
2017-06-05T17:30:04.925Z,58.50
2017-06-05T17:32:32.421Z,60.40
2017-06-05T17:34:59.934Z,62.20
2017-06-05T17:37:27.485Z,60.00
2017-06-05T17:39:55.025Z,60.40
2017-06-05T17:42:22.528Z,63.10
2017-06-05T17:44:50.053Z,60.80
2017-06-05T17:47:17.936Z,61.00
2017-06-05T17:49:45.521Z,63.50
2017-06-05T17:52:13.562Z,59.80
2017-06-05T17:54:41.069Z,59.70
2017-06-05T17:57:08.948Z,57.20
2017-06-05T17:59:36.468Z,57.20
2017-06-05T18:02:03.988Z,58.80
2017-06-05T18:04:31.600Z,60.40
2017-06-05T18:06:59.966Z,62.10
2017-06-05T18:09:28.232Z,62.10
2017-06-05T18:11:55.740Z,64.20
2017-06-05T18:14:23.276Z,64.60
2017-06-05T18:16:51.203Z,66.90
2017-06-05T18:19:18.748Z,66.90
2017-06-05T18:21:46.272Z,67.30
2017-06-05T18:24:13.820Z,68.00
2017-06-05T18:26:41.753Z,67.60
2017-06-05T18:29:09.386Z,67.60
2017-06-05T18:31:36.926Z,70.00
2017-06-05T18:34:04.461Z,67.60
2017-06-05T18:36:31.954Z,68.70
2017-06-05T18:42:10.917Z,68.70
2017-06-05T18:44:39.159Z,68.70
2017-06-05T18:47:07.679Z,67.80
2017-06-05T18:49:35.988Z,67.40
2017-06-05T18:52:04.258Z,68.20
2017-06-05T18:54:32.511Z,68.20
2017-06-05T18:57:01.269Z,67.10
2017-06-05T18:59:29.552Z,66.70
2017-06-05T19:01:58.053Z,69.60
2017-06-05T19:04:27.215Z,68.90
2017-06-05T19:06:55.625Z,68.90
2017-06-05T19:09:24.145Z,68.30
2017-06-05T19:11:52.772Z,68.70
2017-06-05T19:14:21.005Z,68.20
2017-06-05T19:16:49.248Z,68.70
2017-06-05T19:19:17.644Z,67.40
2017-06-05T19:21:46.314Z,66.90
2017-06-05T19:24:14.675Z,66.90
2017-06-05T19:26:43.156Z,66.90
2017-06-05T19:29:12.139Z,66.00
2017-06-05T19:31:40.373Z,66.70
2017-06-05T19:34:08.667Z,65.80
2017-06-05T19:36:37.280Z,66.20
2017-06-05T19:39:05.551Z,66.00
2017-06-05T19:41:33.809Z,66.20
2017-06-05T19:44:02.063Z,66.00
2017-06-05T19:46:30.355Z,65.50
2017-06-05T19:48:59.343Z,65.80
2017-06-05T19:51:27.658Z,66.60
2017-06-05T19:53:55.962Z,67.10
2017-06-05T19:56:24.315Z,66.70
2017-06-05T19:58:52.836Z,67.10
2017-06-05T20:01:21.197Z,66.70
2017-06-05T20:03:49.412Z,67.80
2017-06-05T20:06:17.708Z,67.80
2017-06-05T20:08:45.972Z,67.80
2017-06-05T20:11:14.217Z,67.10
2017-06-05T20:13:42.611Z,68.00
2017-06-05T20:16:11.003Z,68.50
2017-06-05T20:18:39.252Z,68.30
2017-06-05T20:21:07.526Z,69.20
2017-06-05T20:23:36.211Z,70.50
2017-06-05T20:26:04.507Z,70.50
2017-06-05T20:28:32.733Z,69.40
2017-06-05T20:31:01.116Z,68.70
2017-06-05T20:33:29.765Z,69.80
2017-06-05T20:35:58.114Z,69.80
2017-06-05T20:38:26.980Z,69.80
2017-06-05T20:40:55.239Z,69.60
2017-06-05T20:43:23.504Z,71.00
2017-06-05T20:45:51.782Z,71.00
2017-06-05T20:48:20.795Z,70.90
2017-06-05T20:50:49.440Z,71.20
2017-06-05T20:53:17.711Z,71.20
2017-06-05T20:55:45.982Z,70.90
2017-06-05T20:58:14.264Z,71.00
2017-06-05T21:00:42.540Z,71.20
2017-06-05T21:03:10.814Z,71.40
2017-06-05T21:05:39.172Z,71.80
2017-06-05T21:08:07.442Z,71.80
2017-06-05T21:10:35.986Z,71.20
2017-06-05T21:13:04.278Z,71.60
2017-06-05T21:15:32.633Z,71.20
2017-06-05T21:18:00.926Z,73.00
2017-06-05T21:20:29.254Z,70.70
2017-06-05T21:22:57.538Z,71.20
2017-06-05T21:25:25.900Z,70.70
2017-06-05T21:27:54.137Z,70.50
2017-06-05T21:30:22.375Z,70.50
2017-06-05T21:32:50.636Z,71.60
2017-06-05T21:35:18.880Z,71.20
2017-06-05T21:37:47.155Z,71.60
2017-06-05T21:40:15.431Z,71.40
2017-06-05T21:42:44.060Z,71.00
2017-06-05T21:45:12.348Z,71.00
2017-06-05T21:47:40.577Z,71.40
2017-06-05T21:50:08.811Z,72.50
2017-06-05T21:52:37.126Z,71.60
2017-06-05T21:55:05.364Z,70.10
2017-06-05T21:57:33.673Z,70.50
2017-06-05T22:00:01.887Z,70.90
2017-06-05T22:02:31.050Z,71.00
2017-06-05T22:04:59.523Z,71.40
2017-06-05T22:07:28.141Z,71.20
2017-06-05T22:09:56.376Z,71.20
2017-06-05T22:12:25.020Z,71.90
2017-06-05T22:14:53.299Z,71.90
2017-06-05T22:17:21.583Z,71.60
2017-06-05T22:19:49.841Z,71.80
2017-06-05T22:22:18.101Z,71.20
2017-06-05T22:24:46.491Z,71.90
2017-06-05T22:27:14.742Z,72.70
2017-06-05T22:29:42.979Z,73.00
2017-06-05T22:32:11.653Z,73.20
2017-06-05T22:34:39.899Z,73.20
2017-06-05T22:37:08.168Z,72.50
2017-06-05T22:39:36.480Z,72.50
2017-06-05T22:42:04.724Z,72.50
2017-06-05T22:44:33.241Z,71.90
2017-06-05T22:47:01.491Z,72.30
2017-06-05T22:49:29.740Z,72.80
2017-06-05T22:51:58.268Z,73.00
2017-06-05T22:54:26.519Z,73.20
2017-06-05T22:56:54.776Z,73.20
2017-06-05T22:59:23.085Z,73.00
2017-06-05T23:01:51.320Z,73.40
2017-06-05T23:04:19.572Z,72.80
2017-06-05T23:06:48.284Z,73.60
2017-06-05T23:09:16.544Z,73.60
2017-06-05T23:11:44.798Z,74.10
2017-06-05T23:14:13.080Z,73.60
2017-06-05T23:16:41.732Z,74.60
2017-06-05T23:19:09.976Z,74.60
2017-06-05T23:21:38.275Z,75.20
2017-06-05T23:24:06.525Z,75.20
2017-06-05T23:26:34.796Z,75.50
2017-06-05T23:29:03.048Z,75.50
2017-06-05T23:31:31.680Z,74.80
2017-06-05T23:33:59.982Z,74.80
2017-06-05T23:36:28.354Z,73.70
2017-06-05T23:38:56.589Z,74.10
2017-06-05T23:41:24.859Z,74.10
2017-06-05T23:43:53.178Z,74.10
2017-06-05T23:46:21.422Z,74.30
2017-06-05T23:48:49.708Z,73.90
2017-06-05T23:51:17.951Z,73.70
2017-06-05T23:53:46.197Z,74.30
2017-06-05T23:56:14.502Z,74.80
2017-06-05T23:58:42.744Z,73.90
